sensor_id;sensor_type;location;lat;lon;timestamp;P1;durP1;ratioP1;P2;durP2;ratioP2
58408;SDS011;44202;52.730;6.470;2022-08-03T00:55:37;8.35;;;2.30;;
58408;SDS011;44202;52.730;6.470;2022-08-03T00:58:04;8.10;;;1.98;;
58408;SDS011;44202;52.730;6.470;2022-08-03T01:00:31;4.47;;;1.70;;
58408;SDS011;44202;52.730;6.470;2022-08-03T01:03:20;6.93;;;2.10;;
58408;SDS011;44202;52.730;6.470;2022-08-03T01:16:59;12.15;;;2.05;;
58408;SDS011;44202;52.730;6.470;2022-08-03T01:22:30;9.73;;;2.25;;
58408;SDS011;44202;52.730;6.470;2022-08-03T01:28:32;5.85;;;2.13;;
58408;SDS011;44202;52.730;6.470;2022-08-03T01:40:52;10.80;;;2.70;;
58408;SDS011;44202;52.730;6.470;2022-08-03T01:43:20;6.05;;;2.10;;
58408;SDS011;44202;52.730;6.470;2022-08-03T01:46:23;12.85;;;3.00;;
58408;SDS011;44202;52.730;6.470;2022-08-03T02:33:13;12.07;;;2.90;;
58408;SDS011;44202;52.730;6.470;2022-08-03T02:39:41;8.38;;;3.33;;
58408;SDS011;44202;52.730;6.470;2022-08-03T02:42:09;8.88;;;3.15;;
58408;SDS011;44202;52.730;6.470;2022-08-03T02:44:38;12.68;;;2.90;;
58408;SDS011;44202;52.730;6.470;2022-08-03T02:47:28;10.82;;;3.03;;
58408;SDS011;44202;52.730;6.470;2022-08-03T02:49:55;6.97;;;3.00;;
58408;SDS011;44202;52.730;6.470;2022-08-03T02:56:27;8.27;;;2.95;;
58408;SDS011;44202;52.730;6.470;2022-08-03T02:58:55;10.60;;;3.10;;
58408;SDS011;44202;52.730;6.470;2022-08-03T03:01:23;8.30;;;3.00;;
58408;SDS011;44202;52.730;6.470;2022-08-03T03:06:50;12.23;;;3.22;;
58408;SDS011;44202;52.730;6.470;2022-08-03T03:09:16;7.10;;;2.70;;
58408;SDS011;44202;52.730;6.470;2022-08-03T03:14:56;11.45;;;2.90;;
58408;SDS011;44202;52.730;6.470;2022-08-03T03:17:21;10.43;;;3.00;;
58408;SDS011;44202;52.730;6.470;2022-08-03T03:19:50;9.57;;;3.10;;
58408;SDS011;44202;52.730;6.470;2022-08-03T03:22:17;13.38;;;3.25;;
58408;SDS011;44202;52.730;6.470;2022-08-03T03:24:44;4.00;;;2.45;;
58408;SDS011;44202;52.730;6.470;2022-08-03T03:27:12;11.35;;;2.47;;
58408;SDS011;44202;52.730;6.470;2022-08-03T03:29:39;9.38;;;2.45;;
58408;SDS011;44202;52.730;6.470;2022-08-03T04:06:52;7.80;;;2.72;;
58408;SDS011;44202;52.730;6.470;2022-08-03T04:09:37;6.63;;;2.50;;
58408;SDS011;44202;52.730;6.470;2022-08-03T04:12:27;10.65;;;2.80;;
58408;SDS011;44202;52.730;6.470;2022-08-03T04:14:54;8.82;;;3.28;;
58408;SDS011;44202;52.730;6.470;2022-08-03T04:17:21;8.48;;;2.50;;
58408;SDS011;44202;52.730;6.470;2022-08-03T04:20:06;12.75;;;3.05;;
58408;SDS011;44202;52.730;6.470;2022-08-03T04:22:32;7.47;;;3.15;;
58408;SDS011;44202;52.730;6.470;2022-08-03T04:25:00;10.48;;;3.42;;
58408;SDS011;44202;52.730;6.470;2022-08-03T04:31:02;7.90;;;3.33;;
58408;SDS011;44202;52.730;6.470;2022-08-03T04:33:32;8.00;;;3.28;;
58408;SDS011;44202;52.730;6.470;2022-08-03T04:36:08;8.13;;;3.10;;
58408;SDS011;44202;52.730;6.470;2022-08-03T04:38:39;9.57;;;3.47;;
58408;SDS011;44202;52.730;6.470;2022-08-03T04:41:14;10.30;;;3.13;;
58408;SDS011;44202;52.730;6.470;2022-08-03T04:43:41;11.68;;;3.20;;
58408;SDS011;44202;52.730;6.470;2022-08-03T04:46:07;11.13;;;2.92;;
58408;SDS011;44202;52.730;6.470;2022-08-03T04:48:33;9.65;;;3.20;;
58408;SDS011;44202;52.730;6.470;2022-08-03T04:50:59;9.25;;;2.80;;
58408;SDS011;44202;52.730;6.470;2022-08-03T04:56:56;9.50;;;3.67;;
58408;SDS011;44202;52.730;6.470;2022-08-03T04:59:22;10.10;;;3.85;;
58408;SDS011;44202;52.730;6.470;2022-08-03T05:01:48;12.52;;;3.97;;
58408;SDS011;44202;52.730;6.470;2022-08-03T05:10:55;11.73;;;3.25;;
58408;SDS011;44202;52.730;6.470;2022-08-03T05:13:21;15.75;;;4.00;;
58408;SDS011;44202;52.730;6.470;2022-08-03T05:18:43;13.57;;;3.58;;
58408;SDS011;44202;52.730;6.470;2022-08-03T05:21:10;16.95;;;3.97;;
58408;SDS011;44202;52.730;6.470;2022-08-03T05:23:38;10.35;;;3.50;;
58408;SDS011;44202;52.730;6.470;2022-08-03T05:26:04;12.27;;;3.55;;
58408;SDS011;44202;52.730;6.470;2022-08-03T05:28:29;12.68;;;4.00;;
58408;SDS011;44202;52.730;6.470;2022-08-03T05:30:55;15.40;;;3.63;;
58408;SDS011;44202;52.730;6.470;2022-08-03T05:33:21;12.85;;;3.13;;
58408;SDS011;44202;52.730;6.470;2022-08-03T05:39:38;10.80;;;3.58;;
58408;SDS011;44202;52.730;6.470;2022-08-03T05:42:04;17.05;;;4.25;;
58408;SDS011;44202;52.730;6.470;2022-08-03T05:44:29;10.45;;;3.53;;
58408;SDS011;44202;52.730;6.470;2022-08-03T05:46:56;7.60;;;3.13;;
58408;SDS011;44202;52.730;6.470;2022-08-03T05:49:22;14.07;;;4.25;;
58408;SDS011;44202;52.730;6.470;2022-08-03T05:51:47;12.05;;;3.40;;
58408;SDS011;44202;52.730;6.470;2022-08-03T05:54:13;13.32;;;3.60;;
58408;SDS011;44202;52.730;6.470;2022-08-03T05:56:39;8.68;;;3.22;;
58408;SDS011;44202;52.730;6.470;2022-08-03T05:59:07;12.98;;;4.30;;
58408;SDS011;44202;52.730;6.470;2022-08-03T06:01:33;16.02;;;3.92;;
58408;SDS011;44202;52.730;6.470;2022-08-03T06:03:59;16.50;;;3.55;;
58408;SDS011;44202;52.730;6.470;2022-08-03T06:06:24;14.35;;;3.95;;
58408;SDS011;44202;52.730;6.470;2022-08-03T06:08:50;13.88;;;3.80;;
58408;SDS011;44202;52.730;6.470;2022-08-03T06:11:16;12.55;;;3.88;;
58408;SDS011;44202;52.730;6.470;2022-08-03T06:13:42;13.95;;;3.95;;
58408;SDS011;44202;52.730;6.470;2022-08-03T06:16:08;14.50;;;4.22;;
58408;SDS011;44202;52.730;6.470;2022-08-03T06:18:34;17.67;;;4.30;;
58408;SDS011;44202;52.730;6.470;2022-08-03T06:21:00;10.68;;;4.13;;
58408;SDS011;44202;52.730;6.470;2022-08-03T06:23:26;14.88;;;4.22;;
58408;SDS011;44202;52.730;6.470;2022-08-03T06:25:52;12.48;;;3.92;;
58408;SDS011;44202;52.730;6.470;2022-08-03T06:28:18;13.80;;;4.00;;
58408;SDS011;44202;52.730;6.470;2022-08-03T06:30:43;10.27;;;3.88;;
58408;SDS011;44202;52.730;6.470;2022-08-03T06:33:09;9.38;;;3.72;;
58408;SDS011;44202;52.730;6.470;2022-08-03T06:35:35;18.08;;;3.97;;
58408;SDS011;44202;52.730;6.470;2022-08-03T06:38:01;13.32;;;3.80;;
58408;SDS011;44202;52.730;6.470;2022-08-03T06:40:27;14.02;;;3.85;;
58408;SDS011;44202;52.730;6.470;2022-08-03T06:42:59;12.65;;;3.90;;
58408;SDS011;44202;52.730;6.470;2022-08-03T06:45:26;11.80;;;3.60;;
58408;SDS011;44202;52.730;6.470;2022-08-03T06:48:03;13.30;;;3.88;;
58408;SDS011;44202;52.730;6.470;2022-08-03T06:50:30;18.08;;;4.28;;
58408;SDS011;44202;52.730;6.470;2022-08-03T06:52:56;15.40;;;3.80;;
58408;SDS011;44202;52.730;6.470;2022-08-03T06:55:22;13.25;;;4.15;;
58408;SDS011;44202;52.730;6.470;2022-08-03T06:57:48;14.35;;;3.70;;
58408;SDS011;44202;52.730;6.470;2022-08-03T07:00:14;16.77;;;3.50;;
58408;SDS011;44202;52.730;6.470;2022-08-03T07:02:40;13.00;;;3.72;;
58408;SDS011;44202;52.730;6.470;2022-08-03T07:05:06;13.38;;;3.75;;
58408;SDS011;44202;52.730;6.470;2022-08-03T07:07:33;11.00;;;3.83;;
58408;SDS011;44202;52.730;6.470;2022-08-03T07:09:59;21.20;;;3.92;;
58408;SDS011;44202;52.730;6.470;2022-08-03T07:12:25;7.18;;;2.22;;
58408;SDS011;44202;52.730;6.470;2022-08-03T07:14:52;17.52;;;3.65;;
58408;SDS011;44202;52.730;6.470;2022-08-03T07:17:18;16.45;;;3.75;;
58408;SDS011;44202;52.730;6.470;2022-08-03T07:19:43;13.40;;;3.88;;
58408;SDS011;44202;52.730;6.470;2022-08-03T07:22:09;20.17;;;3.97;;
58408;SDS011;44202;52.730;6.470;2022-08-03T07:24:35;13.63;;;3.92;;
58408;SDS011;44202;52.730;6.470;2022-08-03T07:27:01;13.85;;;3.28;;
58408;SDS011;44202;52.730;6.470;2022-08-03T07:29:27;14.43;;;3.60;;
58408;SDS011;44202;52.730;6.470;2022-08-03T07:31:55;16.25;;;3.58;;
58408;SDS011;44202;52.730;6.470;2022-08-03T07:34:21;14.38;;;3.30;;
58408;SDS011;44202;52.730;6.470;2022-08-03T07:36:46;16.48;;;3.47;;
58408;SDS011;44202;52.730;6.470;2022-08-03T07:39:12;14.48;;;2.83;;
58408;SDS011;44202;52.730;6.470;2022-08-03T07:41:37;15.60;;;3.78;;
58408;SDS011;44202;52.730;6.470;2022-08-03T07:44:03;17.77;;;4.20;;
58408;SDS011;44202;52.730;6.470;2022-08-03T07:46:29;11.85;;;3.63;;
58408;SDS011;44202;52.730;6.470;2022-08-03T07:48:54;15.35;;;3.00;;
58408;SDS011;44202;52.730;6.470;2022-08-03T07:51:20;16.15;;;3.10;;
58408;SDS011;44202;52.730;6.470;2022-08-03T07:53:46;14.85;;;2.90;;
58408;SDS011;44202;52.730;6.470;2022-08-03T07:56:11;15.52;;;3.20;;
58408;SDS011;44202;52.730;6.470;2022-08-03T07:58:37;15.07;;;3.17;;
58408;SDS011;44202;52.730;6.470;2022-08-03T08:01:03;13.57;;;3.10;;
58408;SDS011;44202;52.730;6.470;2022-08-03T08:03:28;13.15;;;2.92;;
58408;SDS011;44202;52.730;6.470;2022-08-03T08:05:54;17.60;;;3.42;;
58408;SDS011;44202;52.730;6.470;2022-08-03T08:08:20;18.50;;;3.42;;
58408;SDS011;44202;52.730;6.470;2022-08-03T08:10:46;12.15;;;3.08;;
58408;SDS011;44202;52.730;6.470;2022-08-03T08:13:12;17.15;;;3.17;;
58408;SDS011;44202;52.730;6.470;2022-08-03T08:15:37;14.82;;;3.15;;
58408;SDS011;44202;52.730;6.470;2022-08-03T08:18:03;16.30;;;3.40;;
58408;SDS011;44202;52.730;6.470;2022-08-03T08:20:30;12.98;;;3.63;;
58408;SDS011;44202;52.730;6.470;2022-08-03T08:22:59;13.32;;;3.15;;
58408;SDS011;44202;52.730;6.470;2022-08-03T08:25:26;13.98;;;2.72;;
58408;SDS011;44202;52.730;6.470;2022-08-03T08:27:52;18.70;;;3.22;;
58408;SDS011;44202;52.730;6.470;2022-08-03T08:30:18;16.90;;;3.60;;
58408;SDS011;44202;52.730;6.470;2022-08-03T08:32:45;18.10;;;3.42;;
58408;SDS011;44202;52.730;6.470;2022-08-03T08:35:12;15.88;;;3.35;;
58408;SDS011;44202;52.730;6.470;2022-08-03T08:37:38;15.93;;;2.85;;
58408;SDS011;44202;52.730;6.470;2022-08-03T08:40:05;15.35;;;3.22;;
58408;SDS011;44202;52.730;6.470;2022-08-03T08:42:31;15.57;;;3.17;;
58408;SDS011;44202;52.730;6.470;2022-08-03T08:44:58;14.00;;;3.17;;
58408;SDS011;44202;52.730;6.470;2022-08-03T08:47:25;14.18;;;2.90;;
58408;SDS011;44202;52.730;6.470;2022-08-03T08:49:54;12.82;;;2.90;;
58408;SDS011;44202;52.730;6.470;2022-08-03T08:52:26;14.65;;;3.22;;
58408;SDS011;44202;52.730;6.470;2022-08-03T08:54:54;15.38;;;2.67;;
58408;SDS011;44202;52.730;6.470;2022-08-03T08:57:45;16.38;;;2.90;;
58408;SDS011;44202;52.730;6.470;2022-08-03T09:00:11;11.25;;;2.80;;
58408;SDS011;44202;52.730;6.470;2022-08-03T09:02:40;17.50;;;3.88;;
58408;SDS011;44202;52.730;6.470;2022-08-03T09:05:10;14.82;;;3.00;;
58408;SDS011;44202;52.730;6.470;2022-08-03T09:07:37;12.25;;;3.28;;
58408;SDS011;44202;52.730;6.470;2022-08-03T09:10:04;13.57;;;3.00;;
58408;SDS011;44202;52.730;6.470;2022-08-03T09:12:36;14.90;;;2.90;;
58408;SDS011;44202;52.730;6.470;2022-08-03T09:15:19;13.98;;;3.20;;
58408;SDS011;44202;52.730;6.470;2022-08-03T09:17:47;16.05;;;3.08;;
58408;SDS011;44202;52.730;6.470;2022-08-03T09:20:14;12.35;;;3.00;;
58408;SDS011;44202;52.730;6.470;2022-08-03T09:25:25;16.75;;;3.05;;
58408;SDS011;44202;52.730;6.470;2022-08-03T09:27:54;11.70;;;2.50;;
58408;SDS011;44202;52.730;6.470;2022-08-03T09:30:27;17.40;;;3.13;;
58408;SDS011;44202;52.730;6.470;2022-08-03T09:32:59;18.25;;;3.33;;
58408;SDS011;44202;52.730;6.470;2022-08-03T09:35:26;17.48;;;3.08;;
58408;SDS011;44202;52.730;6.470;2022-08-03T09:38:11;14.23;;;2.47;;
58408;SDS011;44202;52.730;6.470;2022-08-03T09:40:41;14.25;;;2.95;;
58408;SDS011;44202;52.730;6.470;2022-08-03T09:43:09;13.63;;;3.40;;
58408;SDS011;44202;52.730;6.470;2022-08-03T09:45:35;17.63;;;3.40;;
58408;SDS011;44202;52.730;6.470;2022-08-03T09:51:00;13.30;;;3.03;;
58408;SDS011;44202;52.730;6.470;2022-08-03T09:53:27;20.88;;;3.42;;
58408;SDS011;44202;52.730;6.470;2022-08-03T09:55:57;17.08;;;3.63;;
58408;SDS011;44202;52.730;6.470;2022-08-03T09:58:25;13.85;;;2.95;;
58408;SDS011;44202;52.730;6.470;2022-08-03T10:03:18;20.65;;;3.80;;
58408;SDS011;44202;52.730;6.470;2022-08-03T10:05:44;15.80;;;2.97;;
58408;SDS011;44202;52.730;6.470;2022-08-03T10:08:14;16.33;;;3.00;;
58408;SDS011;44202;52.730;6.470;2022-08-03T10:13:07;17.70;;;3.40;;
58408;SDS011;44202;52.730;6.470;2022-08-03T10:15:33;13.02;;;3.00;;
58408;SDS011;44202;52.730;6.470;2022-08-03T10:17:58;20.52;;;3.20;;
58408;SDS011;44202;52.730;6.470;2022-08-03T10:20:24;17.85;;;3.05;;
58408;SDS011;44202;52.730;6.470;2022-08-03T10:22:50;11.82;;;3.08;;
58408;SDS011;44202;52.730;6.470;2022-08-03T10:25:16;12.55;;;3.83;;
58408;SDS011;44202;52.730;6.470;2022-08-03T10:27:45;17.00;;;3.13;;
58408;SDS011;44202;52.730;6.470;2022-08-03T10:30:13;13.32;;;2.85;;
58408;SDS011;44202;52.730;6.470;2022-08-03T10:32:40;14.70;;;3.58;;
58408;SDS011;44202;52.730;6.470;2022-08-03T10:35:10;15.82;;;3.17;;
58408;SDS011;44202;52.730;6.470;2022-08-03T10:40:08;20.75;;;3.08;;
58408;SDS011;44202;52.730;6.470;2022-08-03T10:42:38;14.52;;;3.28;;
58408;SDS011;44202;52.730;6.470;2022-08-03T10:45:08;14.25;;;3.13;;
58408;SDS011;44202;52.730;6.470;2022-08-03T10:47:43;14.85;;;3.05;;
58408;SDS011;44202;52.730;6.470;2022-08-03T10:50:10;13.43;;;2.88;;
58408;SDS011;44202;52.730;6.470;2022-08-03T10:52:52;19.90;;;3.75;;
58408;SDS011;44202;52.730;6.470;2022-08-03T10:55:30;16.73;;;3.53;;
58408;SDS011;44202;52.730;6.470;2022-08-03T10:58:15;16.08;;;3.03;;
58408;SDS011;44202;52.730;6.470;2022-08-03T11:01:00;13.95;;;2.90;;
58408;SDS011;44202;52.730;6.470;2022-08-03T11:03:26;15.52;;;3.00;;
58408;SDS011;44202;52.730;6.470;2022-08-03T11:05:51;15.30;;;3.08;;
58408;SDS011;44202;52.730;6.470;2022-08-03T11:08:19;13.40;;;2.88;;
58408;SDS011;44202;52.730;6.470;2022-08-03T11:10:46;17.83;;;3.67;;
58408;SDS011;44202;52.730;6.470;2022-08-03T11:13:16;13.70;;;3.28;;
58408;SDS011;44202;52.730;6.470;2022-08-03T11:15:44;21.35;;;3.53;;
58408;SDS011;44202;52.730;6.470;2022-08-03T11:18:11;12.07;;;3.28;;
58408;SDS011;44202;52.730;6.470;2022-08-03T11:23:13;20.88;;;3.20;;
58408;SDS011;44202;52.730;6.470;2022-08-03T11:28:42;15.93;;;3.65;;
58408;SDS011;44202;52.730;6.470;2022-08-03T11:34:08;16.38;;;3.30;;
58408;SDS011;44202;52.730;6.470;2022-08-03T11:39:43;20.23;;;2.90;;
58408;SDS011;44202;52.730;6.470;2022-08-03T11:44:48;18.50;;;3.38;;
58408;SDS011;44202;52.730;6.470;2022-08-03T11:47:15;14.90;;;3.20;;
58408;SDS011;44202;52.730;6.470;2022-08-03T11:50:00;14.82;;;2.78;;
58408;SDS011;44202;52.730;6.470;2022-08-03T11:52:26;18.02;;;3.35;;
58408;SDS011;44202;52.730;6.470;2022-08-03T11:54:58;18.63;;;3.38;;
58408;SDS011;44202;52.730;6.470;2022-08-03T11:57:30;16.70;;;3.25;;
58408;SDS011;44202;52.730;6.470;2022-08-03T11:59:56;24.10;;;3.40;;
58408;SDS011;44202;52.730;6.470;2022-08-03T12:02:22;18.73;;;4.25;;
58408;SDS011;44202;52.730;6.470;2022-08-03T12:05:00;21.52;;;3.42;;
58408;SDS011;44202;52.730;6.470;2022-08-03T12:07:26;18.67;;;3.28;;
58408;SDS011;44202;52.730;6.470;2022-08-03T12:10:12;18.45;;;3.60;;
58408;SDS011;44202;52.730;6.470;2022-08-03T12:12:39;19.73;;;3.00;;
58408;SDS011;44202;52.730;6.470;2022-08-03T12:15:06;11.98;;;3.10;;
58408;SDS011;44202;52.730;6.470;2022-08-03T12:17:37;17.05;;;3.22;;
58408;SDS011;44202;52.730;6.470;2022-08-03T12:20:05;16.25;;;3.38;;
58408;SDS011;44202;52.730;6.470;2022-08-03T12:22:33;15.30;;;3.30;;
58408;SDS011;44202;52.730;6.470;2022-08-03T12:25:01;13.13;;;2.88;;
58408;SDS011;44202;52.730;6.470;2022-08-03T12:27:30;12.55;;;2.90;;
58408;SDS011;44202;52.730;6.470;2022-08-03T12:29:56;11.55;;;2.95;;
58408;SDS011;44202;52.730;6.470;2022-08-03T12:32:23;13.55;;;2.70;;
58408;SDS011;44202;52.730;6.470;2022-08-03T12:35:04;15.98;;;2.72;;
58408;SDS011;44202;52.730;6.470;2022-08-03T12:37:30;7.63;;;2.10;;
58408;SDS011;44202;52.730;6.470;2022-08-03T12:39:57;12.07;;;3.00;;
58408;SDS011;44202;52.730;6.470;2022-08-03T12:42:35;14.47;;;3.10;;
58408;SDS011;44202;52.730;6.470;2022-08-03T12:45:24;13.85;;;2.80;;
58408;SDS011;44202;52.730;6.470;2022-08-03T12:48:00;12.97;;;3.10;;
58408;SDS011;44202;52.730;6.470;2022-08-03T12:50:34;10.52;;;2.80;;
58408;SDS011;44202;52.730;6.470;2022-08-03T12:53:01;16.00;;;2.80;;
58408;SDS011;44202;52.730;6.470;2022-08-03T12:55:29;15.88;;;2.75;;
58408;SDS011;44202;52.730;6.470;2022-08-03T12:58:02;14.65;;;3.30;;
58408;SDS011;44202;52.730;6.470;2022-08-03T13:00:29;10.23;;;2.80;;
58408;SDS011;44202;52.730;6.470;2022-08-03T13:02:59;13.43;;;2.63;;
58408;SDS011;44202;52.730;6.470;2022-08-03T13:05:25;10.50;;;2.58;;
58408;SDS011;44202;52.730;6.470;2022-08-03T13:07:51;14.25;;;2.80;;
58408;SDS011;44202;52.730;6.470;2022-08-03T13:10:27;14.88;;;2.78;;
58408;SDS011;44202;52.730;6.470;2022-08-03T13:12:54;16.85;;;2.63;;
58408;SDS011;44202;52.730;6.470;2022-08-03T13:15:23;11.35;;;2.55;;
58408;SDS011;44202;52.730;6.470;2022-08-03T13:17:50;13.00;;;2.22;;
58408;SDS011;44202;52.730;6.470;2022-08-03T13:20:16;14.02;;;2.33;;
58408;SDS011;44202;52.730;6.470;2022-08-03T13:22:45;13.93;;;2.95;;
58408;SDS011;44202;52.730;6.470;2022-08-03T13:25:11;11.60;;;2.07;;
58408;SDS011;44202;52.730;6.470;2022-08-03T13:27:37;15.20;;;2.38;;
58408;SDS011;44202;52.730;6.470;2022-08-03T13:30:03;11.38;;;2.25;;
58408;SDS011;44202;52.730;6.470;2022-08-03T13:32:29;13.95;;;2.88;;
58408;SDS011;44202;52.730;6.470;2022-08-03T13:34:54;12.80;;;2.70;;
58408;SDS011;44202;52.730;6.470;2022-08-03T13:37:20;16.80;;;3.13;;
58408;SDS011;44202;52.730;6.470;2022-08-03T13:39:45;11.48;;;2.38;;
58408;SDS011;44202;52.730;6.470;2022-08-03T13:42:11;11.40;;;2.08;;
58408;SDS011;44202;52.730;6.470;2022-08-03T13:44:37;11.00;;;2.28;;
58408;SDS011;44202;52.730;6.470;2022-08-03T13:47:03;12.23;;;2.22;;
58408;SDS011;44202;52.730;6.470;2022-08-03T13:49:29;10.98;;;2.38;;
58408;SDS011;44202;52.730;6.470;2022-08-03T13:51:55;11.48;;;2.72;;
58408;SDS011;44202;52.730;6.470;2022-08-03T13:54:21;14.32;;;2.55;;
58408;SDS011;44202;52.730;6.470;2022-08-03T13:56:47;11.77;;;2.35;;
58408;SDS011;44202;52.730;6.470;2022-08-03T13:59:19;13.38;;;2.60;;
58408;SDS011;44202;52.730;6.470;2022-08-03T14:01:49;11.98;;;2.35;;
58408;SDS011;44202;52.730;6.470;2022-08-03T14:04:16;13.55;;;2.17;;
58408;SDS011;44202;52.730;6.470;2022-08-03T14:06:42;11.05;;;2.38;;
58408;SDS011;44202;52.730;6.470;2022-08-03T14:09:09;16.08;;;2.60;;
58408;SDS011;44202;52.730;6.470;2022-08-03T14:11:35;9.68;;;2.05;;
58408;SDS011;44202;52.730;6.470;2022-08-03T14:14:01;9.80;;;2.20;;
58408;SDS011;44202;52.730;6.470;2022-08-03T14:16:27;12.20;;;2.28;;
58408;SDS011;44202;52.730;6.470;2022-08-03T14:18:52;15.35;;;2.63;;
58408;SDS011;44202;52.730;6.470;2022-08-03T14:21:18;9.65;;;2.20;;
58408;SDS011;44202;52.730;6.470;2022-08-03T14:23:43;11.07;;;1.98;;
58408;SDS011;44202;52.730;6.470;2022-08-03T14:26:09;12.93;;;2.50;;
58408;SDS011;44202;52.730;6.470;2022-08-03T14:28:36;9.52;;;2.00;;
58408;SDS011;44202;52.730;6.470;2022-08-03T14:31:01;7.75;;;1.83;;
58408;SDS011;44202;52.730;6.470;2022-08-03T14:33:28;13.65;;;2.03;;
58408;SDS011;44202;52.730;6.470;2022-08-03T14:36:12;10.05;;;1.92;;
58408;SDS011;44202;52.730;6.470;2022-08-03T14:38:38;12.07;;;2.55;;
58408;SDS011;44202;52.730;6.470;2022-08-03T14:41:04;8.68;;;2.42;;
58408;SDS011;44202;52.730;6.470;2022-08-03T14:43:30;10.48;;;2.20;;
58408;SDS011;44202;52.730;6.470;2022-08-03T14:45:55;13.90;;;2.53;;
58408;SDS011;44202;52.730;6.470;2022-08-03T14:48:22;11.40;;;2.20;;
58408;SDS011;44202;52.730;6.470;2022-08-03T14:50:48;9.70;;;2.22;;
58408;SDS011;44202;52.730;6.470;2022-08-03T14:53:16;12.85;;;2.22;;
58408;SDS011;44202;52.730;6.470;2022-08-03T14:55:43;7.78;;;1.85;;
58408;SDS011;44202;52.730;6.470;2022-08-03T14:58:09;8.77;;;2.03;;
58408;SDS011;44202;52.730;6.470;2022-08-03T15:00:35;8.98;;;2.28;;
58408;SDS011;44202;52.730;6.470;2022-08-03T15:03:01;7.50;;;1.88;;
58408;SDS011;44202;52.730;6.470;2022-08-03T15:05:47;8.90;;;1.70;;
58408;SDS011;44202;52.730;6.470;2022-08-03T15:08:15;8.65;;;1.65;;
58408;SDS011;44202;52.730;6.470;2022-08-03T15:10:41;8.48;;;1.85;;
58408;SDS011;44202;52.730;6.470;2022-08-03T15:13:07;8.85;;;2.25;;
58408;SDS011;44202;52.730;6.470;2022-08-03T15:15:33;11.25;;;2.80;;
58408;SDS011;44202;52.730;6.470;2022-08-03T15:17:59;7.60;;;1.83;;
58408;SDS011;44202;52.730;6.470;2022-08-03T15:20:24;7.10;;;2.05;;
58408;SDS011;44202;52.730;6.470;2022-08-03T15:22:50;7.45;;;1.75;;
58408;SDS011;44202;52.730;6.470;2022-08-03T15:25:15;7.25;;;1.70;;
58408;SDS011;44202;52.730;6.470;2022-08-03T15:27:41;4.75;;;1.50;;
58408;SDS011;44202;52.730;6.470;2022-08-03T15:30:07;3.92;;;1.73;;
58408;SDS011;44202;52.730;6.470;2022-08-03T15:32:34;5.85;;;1.95;;
58408;SDS011;44202;52.730;6.470;2022-08-03T15:34:59;6.57;;;1.50;;
58408;SDS011;44202;52.730;6.470;2022-08-03T15:37:25;5.95;;;1.67;;
58408;SDS011;44202;52.730;6.470;2022-08-03T15:39:51;7.65;;;1.95;;
58408;SDS011;44202;52.730;6.470;2022-08-03T15:42:17;3.42;;;2.00;;
58408;SDS011;44202;52.730;6.470;2022-08-03T15:44:43;8.40;;;2.10;;
58408;SDS011;44202;52.730;6.470;2022-08-03T15:47:08;7.85;;;1.92;;
58408;SDS011;44202;52.730;6.470;2022-08-03T15:49:34;7.07;;;2.25;;
58408;SDS011;44202;52.730;6.470;2022-08-03T15:52:00;4.65;;;1.98;;
58408;SDS011;44202;52.730;6.470;2022-08-03T15:54:25;4.13;;;2.13;;
58408;SDS011;44202;52.730;6.470;2022-08-03T15:56:51;6.15;;;1.95;;
58408;SDS011;44202;52.730;6.470;2022-08-03T15:59:17;3.85;;;2.20;;
58408;SDS011;44202;52.730;6.470;2022-08-03T16:01:59;6.93;;;2.05;;
58408;SDS011;44202;52.730;6.470;2022-08-03T16:04:25;7.70;;;2.20;;
58408;SDS011;44202;52.730;6.470;2022-08-03T16:06:51;5.60;;;2.10;;
58408;SDS011;44202;52.730;6.470;2022-08-03T16:09:17;8.82;;;2.63;;
58408;SDS011;44202;52.730;6.470;2022-08-03T16:11:43;6.50;;;2.47;;
58408;SDS011;44202;52.730;6.470;2022-08-03T16:14:09;6.13;;;2.13;;
58408;SDS011;44202;52.730;6.470;2022-08-03T16:16:35;4.85;;;2.00;;
58408;SDS011;44202;52.730;6.470;2022-08-03T16:19:04;6.60;;;1.90;;
58408;SDS011;44202;52.730;6.470;2022-08-03T16:24:23;7.10;;;2.30;;
58408;SDS011;44202;52.730;6.470;2022-08-03T16:26:49;9.00;;;2.20;;
58408;SDS011;44202;52.730;6.470;2022-08-03T16:29:18;5.82;;;2.38;;
58408;SDS011;44202;52.730;6.470;2022-08-03T16:31:43;6.78;;;2.00;;
58408;SDS011;44202;52.730;6.470;2022-08-03T16:34:09;9.45;;;2.50;;
58408;SDS011;44202;52.730;6.470;2022-08-03T16:36:35;7.68;;;2.30;;
58408;SDS011;44202;52.730;6.470;2022-08-03T16:39:00;8.30;;;2.75;;
58408;SDS011;44202;52.730;6.470;2022-08-03T16:41:26;9.90;;;2.42;;
58408;SDS011;44202;52.730;6.470;2022-08-03T16:43:51;5.53;;;2.28;;
58408;SDS011;44202;52.730;6.470;2022-08-03T16:46:18;6.03;;;2.05;;
58408;SDS011;44202;52.730;6.470;2022-08-03T16:48:44;3.95;;;1.95;;
58408;SDS011;44202;52.730;6.470;2022-08-03T16:51:09;3.67;;;1.80;;
58408;SDS011;44202;52.730;6.470;2022-08-03T16:53:35;7.53;;;2.05;;
58408;SDS011;44202;52.730;6.470;2022-08-03T16:56:01;11.75;;;2.42;;
58408;SDS011;44202;52.730;6.470;2022-08-03T16:58:26;8.25;;;2.15;;
58408;SDS011;44202;52.730;6.470;2022-08-03T17:00:54;8.30;;;2.10;;
58408;SDS011;44202;52.730;6.470;2022-08-03T17:03:20;6.30;;;1.73;;
58408;SDS011;44202;52.730;6.470;2022-08-03T17:05:47;10.40;;;2.38;;
58408;SDS011;44202;52.730;6.470;2022-08-03T17:08:14;10.00;;;1.90;;
58408;SDS011;44202;52.730;6.470;2022-08-03T17:10:40;6.82;;;2.10;;
58408;SDS011;44202;52.730;6.470;2022-08-03T17:13:12;7.55;;;1.63;;
58408;SDS011;44202;52.730;6.470;2022-08-03T17:15:41;6.82;;;2.03;;
58408;SDS011;44202;52.730;6.470;2022-08-03T17:18:12;5.88;;;1.52;;
58408;SDS011;44202;52.730;6.470;2022-08-03T17:23:12;8.60;;;1.85;;
58408;SDS011;44202;52.730;6.470;2022-08-03T17:26:03;5.88;;;1.88;;
58408;SDS011;44202;52.730;6.470;2022-08-03T17:28:37;8.02;;;1.65;;
58408;SDS011;44202;52.730;6.470;2022-08-03T17:31:11;5.93;;;1.58;;
58408;SDS011;44202;52.730;6.470;2022-08-03T17:33:43;8.40;;;2.25;;
58408;SDS011;44202;52.730;6.470;2022-08-03T17:36:11;9.35;;;1.83;;
58408;SDS011;44202;52.730;6.470;2022-08-03T17:38:48;8.02;;;2.10;;
58408;SDS011;44202;52.730;6.470;2022-08-03T17:41:18;9.95;;;2.00;;
58408;SDS011;44202;52.730;6.470;2022-08-03T17:43:47;12.77;;;3.35;;
58408;SDS011;44202;52.730;6.470;2022-08-03T17:46:25;8.63;;;2.05;;
58408;SDS011;44202;52.730;6.470;2022-08-03T17:48:51;8.05;;;1.90;;
58408;SDS011;44202;52.730;6.470;2022-08-03T17:51:20;11.77;;;2.92;;
58408;SDS011;44202;52.730;6.470;2022-08-03T17:53:57;10.57;;;2.20;;
58408;SDS011;44202;52.730;6.470;2022-08-03T17:56:38;9.90;;;2.08;;
58408;SDS011;44202;52.730;6.470;2022-08-03T17:59:33;8.60;;;2.63;;
58408;SDS011;44202;52.730;6.470;2022-08-03T18:02:18;8.75;;;1.90;;
58408;SDS011;44202;52.730;6.470;2022-08-03T18:05:05;10.07;;;2.67;;
58408;SDS011;44202;52.730;6.470;2022-08-03T18:07:39;6.78;;;2.15;;
58408;SDS011;44202;52.730;6.470;2022-08-03T18:10:09;7.35;;;2.28;;
58408;SDS011;44202;52.730;6.470;2022-08-03T18:13:18;11.95;;;1.92;;
58408;SDS011;44202;52.730;6.470;2022-08-03T18:15:52;7.32;;;2.53;;
58408;SDS011;44202;52.730;6.470;2022-08-03T18:21:08;9.88;;;2.40;;
58408;SDS011;44202;52.730;6.470;2022-08-03T18:23:36;7.95;;;2.05;;
58408;SDS011;44202;52.730;6.470;2022-08-03T18:26:03;11.85;;;2.00;;
58408;SDS011;44202;52.730;6.470;2022-08-03T18:28:51;8.68;;;2.17;;
58408;SDS011;44202;52.730;6.470;2022-08-03T18:31:18;7.93;;;1.80;;
58408;SDS011;44202;52.730;6.470;2022-08-03T18:33:46;10.18;;;2.10;;
58408;SDS011;44202;52.730;6.470;2022-08-03T18:36:15;12.95;;;2.13;;
58408;SDS011;44202;52.730;6.470;2022-08-03T18:38:42;6.47;;;1.70;;